• Join FlightAware (Why Join?)
  • Login
  • US Flag 
09:21AM EDT


 

Airport Tracker/Info


-or-


 

Live Flight TrackerFlight Track Log ✈ SKQ225 ✈ 30-Apr-2013 ✈ KSDF - KOSU

Flight Track Log - Related Links

Times and Time Zones

All times are in EDT time to prevent confusion due to time zone crossing. See the SKQ225 flight status page for this flight to view local times or setup timezone preferences in your user account.

Time Position Orientation Groundspeed Altitude Reporting Facility
EDT Latitude Longitude Course Direction KTS MPH feet Rate Location/Type
03:42AM 38.2103 -85.6131 49° Northeast 137 158 4,400  Level Indianapolis Center
03:43AM 38.2367 -85.5772 47° Northeast 138 159 5,500 1,020 Climbing Indianapolis Center
03:44AM 38.2636 -85.5436 44° Northeast 137 158 6,500 660 Climbing Indianapolis Center
03:45AM 38.3483 -85.4850 38° Northeast  Level FlightAware Approximate
03:45AM 38.2919 -85.5050 47° Northeast 146 168 6,900  Level Indianapolis Center
03:46AM 38.3813 -85.4472 46° Northeast  Level FlightAware Approximate
03:46AM 38.3294 -85.4575 45° Northeast 180 207 7,000  Level Indianapolis Center
03:47AM 38.3672 -85.4097 45° Northeast 190 219 7,000 -60 Level Indianapolis Center
03:48AM 38.4031 -85.3617 46° Northeast 187 215 6,900 -60 Descending Indianapolis Center
03:49AM 38.4389 -85.3147 46° Northeast 185 213 6,900  Level Indianapolis Center
03:50AM 38.4731 -85.2672 47° Northeast 183 211 6,900  Level Indianapolis Center
03:51AM 38.5094 -85.2192 46° Northeast 186 214 7,000  Climbing Indianapolis Center
03:52AM 38.5442 -85.1739 46° Northeast 186 214 7,000 -60 Level Indianapolis Center
03:53AM 38.5789 -85.1308 44° Northeast 186 214 6,900 -60 Descending Indianapolis Center
03:54AM 38.6169 -85.0794 47° Northeast 187 215 6,900  Level Indianapolis Center
03:55AM 38.6506 -85.0342 46° Northeast 187 215 6,900  Level Indianapolis Center
03:56AM 38.6869 -84.9853 46° Northeast 188 216 6,900  Level Indianapolis Center
03:57AM 38.7231 -84.9361 47° Northeast 188 216 7,000  Climbing Indianapolis Center
03:58AM 38.7600 -84.8875 46° Northeast 190 219 7,000 -60 Level Indianapolis Center
03:59AM 38.7975 -84.8383 46° Northeast 193 222 6,900 -60 Descending Indianapolis Center
04:00AM 38.8336 -84.7900 46° Northeast 189 217 6,900  Level Indianapolis Center
04:01AM 38.8711 -84.7411 45° Northeast 189 217 6,900  Level Indianapolis Center
04:02AM 38.9000 -84.7000 48° Northeast 190 219 7,000 60 Climbing Cincinnati TRACON
04:03AM 38.9333 -84.6500 49° Northeast 193 222 7,100  Climbing Cincinnati TRACON
04:04AM 38.9833 -84.6000 38° Northeast 191 220 7,100 -60 Level Cincinnati TRACON
04:05AM 39.0167 -84.5500 49° Northeast 191 220 7,000 -60 Descending Cincinnati TRACON
04:06AM 39.0500 -84.5000 49° Northeast 193 222 7,000  Level Cincinnati TRACON
04:07AM 39.0833 -84.4500 49° Northeast 189 217 7,000  Level Cincinnati TRACON
04:08AM 39.1167 -84.4000 49° Northeast 188 216 7,100  Climbing Cincinnati TRACON
04:09AM 39.1558 -84.3564 41° Northeast 190 219 7,100  Level Indianapolis Center
04:09AM 39.1650 -84.3419 51° Northeast 189 217 7,100 -120 Level Indianapolis Center
04:10AM 39.1936 -84.3050 45° Northeast 191 220 7,000  Descending Indianapolis Center
04:11AM 39.2394 -84.2411 47° Northeast 193 222 7,100  Climbing Indianapolis Center
04:12AM 39.2667 -84.2039 47° Northeast 192 221 7,000 -60 Descending Indianapolis Center
04:13AM 39.3067 -84.1500 46° Northeast 192 221 7,000  Level Indianapolis Center
04:14AM 39.3439 -84.1008 46° Northeast 191 220 7,100  Climbing Indianapolis Center
04:15AM 39.3906 -84.0664 30° Northeast 192 221 7,000 -60 Descending Indianapolis Center
04:16AM 39.4356 -84.0289 33° Northeast 193 222 7,000  Level Indianapolis Center
04:17AM 39.4800 -83.9942 31° Northeast 193 222 7,000  Level Indianapolis Center
04:18AM 39.5250 -83.9567 33° Northeast 191 220 7,000  Level Indianapolis Center
04:19AM 39.5742 -83.9169 32° Northeast 192 221 7,000  Level Indianapolis Center
04:20AM 39.6208 -83.8822 30° Northeast 192 221 7,000  Level Indianapolis Center
04:21AM 39.6653 -83.8472 31° Northeast 191 220 7,100  Climbing Indianapolis Center
04:22AM 39.7119 -83.8125 30° Northeast 193 222 7,000  Descending Indianapolis Center
04:23AM 39.7567 -83.7747 33° Northeast 192 221 7,100  Climbing Indianapolis Center
04:24AM 39.8100 -83.7353 30° Northeast 191 220 7,000 -60 Descending Indianapolis Center
04:25AM 39.8525 -83.6972 35° Northeast 190 219 7,000  Level Indianapolis Center
04:26AM 39.8972 -83.6594 33° Northeast 190 219 7,000 -180 Level Indianapolis Center
04:27AM 39.9306 -83.6036 52° Northeast 195 224 6,700 -540 Descending Indianapolis Center
04:28AM 39.9644 -83.5444 53° Northeast 201 231 6,000 -840 Descending Indianapolis Center
04:29AM 40.0042 -83.4875 48° Northeast 214 246 5,100 -780 Descending Indianapolis Center
04:30AM 40.0439 -83.4297 48° Northeast 215 247 4,500 -720 Descending Indianapolis Center
04:31AM 40.0656 -83.3722 64° Northeast 209 241 3,700 -540 Descending Indianapolis Center
04:32AM 40.0692 -83.2917 87° East 206 237 3,500 -240 Descending Indianapolis Center
04:34AM 40.0681 -83.1949 91° East  Level FlightAware Approximate
04:41AM 40.0667 -83.0667 77° East  Level FlightAware Approximate
04:42AM 40.0798 -83.0732 77° East  Level Estimated